Time;durP1;ratioP1;P1;durP2;ratioP2;P2;SDS_P1;SDS_P2;PMS_P1;PMS_P2;Temp;Humidity;BMP_temperature;BMP_pressure;BME280_temperature;BME280_humidity;BME280_pressure;Samples;Min_cycle;Max_cycle;Signal;HPM_P1;HPM_P2
2021/01/08 00:02:08;;;;;;;165.65;72.22;;;103.10;2227.20;;;;;;5038750;28;20082;-88
2021/01/08 00:04:34;;;;;;;251.15;109.22;;;102.80;2227.20;;;;;;5038100;28;20025;-89
2021/01/08 00:07:00;;;;;;;204.95;95.78;;;102.90;2227.20;;;;;;5038104;28;20063;-88
2021/01/08 00:09:26;;;;;;;291.13;125.40;;;102.90;2227.20;;;;;;5038153;28;20021;-88
2021/01/08 00:11:56;;;;;;;186.38;82.68;;;103.00;2227.20;;;;;;5038491;28;20048;-88
2021/01/08 00:14:22;;;;;;;201.23;100.57;;;102.80;2227.20;;;;;;5041663;28;20511;-88
2021/01/08 00:16:49;;;;;;;194.32;93.65;;;102.80;2227.20;;;;;;5051008;28;20025;-88
2021/01/08 00:19:15;;;;;;;67.68;41.55;;;102.80;2227.20;;;;;;5067872;28;20028;-86
2021/01/08 00:21:44;;;;;;;76.88;42.30;;;102.80;2227.20;;;;;;5066691;28;20028;-87
2021/01/08 00:24:14;;;;;;;69.20;36.85;;;102.80;2227.20;;;;;;5054055;28;20029;-89
2021/01/08 00:26:41;;;;;;;49.25;34.28;;;102.90;2227.20;;;;;;5055164;28;20052;-88
2021/01/08 00:29:08;;;;;;;53.90;35.45;;;102.90;2227.20;;;;;;5054311;28;20067;-88
2021/01/08 00:31:39;;;;;;;86.32;48.45;;;103.00;2227.20;;;;;;5054174;28;20028;-89
2021/01/08 00:34:06;;;;;;;130.73;68.18;;;102.90;2227.20;;;;;;5054978;28;20048;-90
2021/01/08 00:36:33;;;;;;;69.28;37.25;;;102.80;2227.20;;;;;;5054189;28;20115;-91
2021/01/08 00:38:59;;;;;;;79.00;45.90;;;102.50;2227.20;;;;;;5054460;28;20040;-89
2021/01/08 00:41:36;;;;;;;65.28;39.22;;;102.80;2227.20;;;;;;5054591;28;20369;-88
2021/01/08 00:44:02;;;;;;;74.97;44.47;;;102.70;2227.20;;;;;;5054767;28;20155;-89
2021/01/08 00:46:37;;;;;;;53.30;33.97;;;102.60;2227.20;;;;;;5053479;28;20060;-88
2021/01/08 00:49:09;;;;;;;44.88;28.42;;;102.50;2227.20;;;;;;5054015;28;20025;-87
2021/01/08 00:51:36;;;;;;;37.00;23.80;;;102.50;2227.20;;;;;;5053357;28;20381;-88
2021/01/08 00:54:03;;;;;;;52.33;32.25;;;102.50;2227.20;;;;;;5054406;28;20028;-88
2021/01/08 00:56:29;;;;;;;45.65;30.50;;;102.40;2227.20;;;;;;5053728;28;20021;-90
2021/01/08 00:58:55;;;;;;;80.50;45.58;;;102.40;2227.20;;;;;;5054103;28;20515;-89
2021/01/08 01:01:22;;;;;;;101.32;52.58;;;102.40;2227.20;;;;;;5053382;28;20091;-88
2021/01/08 01:03:48;;;;;;;89.32;47.17;;;102.40;2227.20;;;;;;5053952;28;20381;-88
2021/01/08 01:06:26;;;;;;;64.18;34.40;;;102.40;2227.20;;;;;;5053717;28;20060;-89
2021/01/08 01:08:53;;;;;;;72.03;39.75;;;77.70;2227.20;;;;;;5020625;28;20029;-88
2021/01/08 01:11:21;;;;;;;103.57;55.17;;;77.70;2227.20;;;;;;5053548;28;20108;-88
2021/01/08 01:13:49;;;;;;;108.68;58.35;;;77.70;2227.20;;;;;;5054120;28;20119;-89
2021/01/08 01:16:16;;;;;;;40.08;26.75;;;77.60;2227.20;;;;;;5053923;28;20024;-89
2021/01/08 03:27:08;;;;;;;27.40;16.52;;;77.50;2227.20;;;;;;4986758;23;20058;-87
2021/01/08 03:35:48;;;;;;;19.35;11.85;;;77.40;2227.20;;;;;;5024140;23;20540;-87
2021/01/08 03:38:14;;;;;;;16.75;10.95;;;77.40;2227.20;;;;;;4999042;28;20033;-88
2021/01/08 03:40:41;;;;;;;16.52;11.23;;;77.30;2227.20;;;;;;4982852;28;20064;-88
2021/01/08 03:43:23;;;;;;;17.85;12.57;;;77.20;2227.20;;;;;;4983185;28;20390;-88
2021/01/08 03:45:51;;;;;;;18.92;11.18;;;77.10;2227.20;;;;;;5016762;28;20022;-89
2021/01/08 03:48:18;;;;;;;19.10;11.77;;;77.00;2227.20;;;;;;4999371;28;20382;-88
2021/01/08 03:50:44;;;;;;;17.20;10.95;;;77.00;2227.20;;;;;;4998708;28;20119;-87
2021/01/08 03:53:41;;;;;;;15.07;10.77;;;77.00;2227.20;;;;;;4998945;28;20060;-87
2021/01/08 03:59:14;;;;;;;17.10;12.07;;;77.30;2227.20;;;;;;5016231;28;20426;-89
2021/01/08 04:05:23;;;;;;;18.45;13.00;;;77.00;2227.20;;;;;;5009443;23;20051;-88
2021/01/08 04:07:49;;;;;;;19.77;13.07;;;77.10;2227.20;;;;;;4979739;28;20034;-88
2021/01/08 04:10:15;;;;;;;21.27;13.23;;;77.10;2227.20;;;;;;4978912;28;20109;-88
2021/01/08 04:12:41;;;;;;;20.63;13.85;;;77.20;2227.20;;;;;;4978875;28;20022;-87
2021/01/08 04:15:08;;;;;;;17.83;12.05;;;77.20;2227.20;;;;;;4979528;28;20062;-87
2021/01/08 04:17:34;;;;;;;15.98;10.82;;;77.50;2227.20;;;;;;4979250;28;20036;-88
2021/01/08 04:20:00;;;;;;;18.15;12.50;;;77.30;2227.20;;;;;;4978769;28;20026;-87
2021/01/08 04:22:26;;;;;;;16.50;12.45;;;77.00;2227.20;;;;;;4978215;28;20027;-89
2021/01/08 04:24:53;;;;;;;26.80;18.10;;;77.00;2227.20;;;;;;4979273;28;20030;-88
2021/01/08 04:27:19;;;;;;;41.00;29.38;;;77.10;2227.20;;;;;;4978933;28;20029;-88
2021/01/08 04:29:45;;;;;;;46.03;32.75;;;77.00;2227.20;;;;;;4979648;28;20371;-88
2021/01/08 04:32:22;;;;;;;65.53;42.60;;;77.10;2227.20;;;;;;4995110;28;20018;-90
2021/01/08 04:34:48;;;;;;;68.05;44.95;;;77.00;2227.20;;;;;;4997935;28;20029;-89
2021/01/08 04:37:14;;;;;;;81.72;52.58;;;77.70;2227.20;;;;;;4998095;28;20056;-89
2021/01/08 04:39:41;;;;;;;63.97;42.38;;;77.00;2227.20;;;;;;4998290;28;20037;-89
2021/01/08 04:42:07;;;;;;;65.53;43.72;;;77.00;2227.20;;;;;;4998036;28;20474;-88
2021/01/08 04:44:36;;;;;;;66.75;45.60;;;77.00;2227.20;;;;;;4997914;28;20026;-88
2021/01/08 04:47:05;;;;;;;61.17;41.95;;;76.90;2227.20;;;;;;5015302;28;20018;-87
2021/01/08 04:49:33;;;;;;;66.70;45.45;;;76.80;2227.20;;;;;;4997699;28;20091;-88
2021/01/08 04:55:14;;;;;;;47.78;30.50;;;77.00;2227.20;;;;;;5004817;28;20092;-87
2021/01/08 04:57:44;;;;;;;48.25;30.92;;;77.10;2227.20;;;;;;4995925;28;20041;-88
2021/01/08 05:03:33;;;;;;;32.65;22.08;;;77.00;2227.20;;;;;;5015275;28;20438;-87
2021/01/08 05:06:00;;;;;;;31.80;22.02;;;77.00;2227.20;;;;;;4997596;28;20032;-88
2021/01/08 05:18:56;;;;;;;52.08;34.38;;;77.20;2227.20;;;;;;4997547;28;20060;-88
2021/01/08 06:15:44;;;;;;;62.80;43.30;;;77.00;2227.20;;;;;;5021695;23;20410;-89
2021/01/08 06:18:14;;;;;;;84.20;57.72;;;77.20;2227.20;;;;;;4995176;28;20038;-88
2021/01/08 06:20:42;;;;;;;92.13;61.83;;;77.20;2227.20;;;;;;4980658;28;20040;-88
2021/01/08 06:23:08;;;;;;;80.15;51.72;;;77.00;2227.20;;;;;;4986684;28;20077;-90
2021/01/08 06:25:37;;;;;;;87.18;52.80;;;76.90;2227.20;;;;;;4988040;28;20026;-87
2021/01/08 06:28:04;;;;;;;80.70;51.67;;;77.20;2227.20;;;;;;4986561;28;20046;-89
2021/01/08 06:30:33;;;;;;;88.40;56.15;;;77.30;2227.20;;;;;;4977772;28;20022;-89
2021/01/08 06:33:04;;;;;;;98.47;65.35;;;77.20;2227.20;;;;;;4977521;28;20046;-89
2021/01/08 06:35:32;;;;;;;407.70;265.88;;;77.20;2227.20;;;;;;4977498;28;20077;-89
2021/01/08 06:38:12;;;;;;;403.40;268.30;;;77.10;2227.20;;;;;;4977476;28;20113;-88
2021/01/08 06:40:41;;;;;;;315.40;204.90;;;77.10;2227.20;;;;;;4994609;28;20030;-89
2021/01/08 06:43:17;;;;;;;87.82;60.95;;;77.10;2227.20;;;;;;4961342;28;20038;-90
2021/01/08 07:12:16;;;;;;;105.28;71.57;;;77.40;2227.20;;;;;;5012430;23;20054;-89
2021/01/08 07:14:45;;;;;;;160.93;120.13;;;77.30;2227.20;;;;;;4981328;28;20030;-90
2021/01/08 07:17:14;;;;;;;111.47;80.22;;;77.20;2227.20;;;;;;4980390;28;20474;-90
2021/01/08 07:19:43;;;;;;;86.50;60.80;;;77.30;2227.20;;;;;;4997545;28;20023;-90
2021/01/08 07:22:19;;;;;;;140.35;88.82;;;77.40;2227.20;;;;;;4980244;28;20030;-90
2021/01/08 07:24:48;;;;;;;153.07;95.82;;;102.40;2227.20;;;;;;4980154;28;20031;-90
2021/01/08 07:30:38;;;;;;;354.48;213.13;;;77.40;2227.20;;;;;;4997949;28;20034;-90
2021/01/08 07:33:16;;;;;;;282.35;172.60;;;77.30;2227.20;;;;;;4996269;28;20026;-86
2021/01/08 07:36:26;;;;;;;208.85;125.57;;;77.30;2227.20;;;;;;4993902;28;20023;-88
2021/01/08 08:11:27;;;;;;;168.85;109.78;;;77.20;2227.20;;;;;;5007406;28;20030;-79
2021/01/08 08:14:06;;;;;;;170.00;108.97;;;77.10;2227.20;;;;;;4997411;28;20035;-82
2021/01/08 08:16:36;;;;;;;145.57;100.82;;;77.20;2227.20;;;;;;4994671;28;20022;-82
2021/01/08 08:19:09;;;;;;;149.52;104.80;;;77.40;2227.20;;;;;;4995530;28;20030;-84
2021/01/08 08:21:35;;;;;;;208.35;96.00;;;77.40;2227.20;;;;;;4994703;28;20030;-85
2021/01/08 08:24:04;;;;;;;238.20;105.82;;;77.40;2227.20;;;;;;4994401;28;20030;-87
2021/01/08 08:26:31;;;;;;;133.77;99.90;;;77.50;2227.20;;;;;;4994670;28;20026;-84
2021/01/08 08:29:07;;;;;;;121.85;94.28;;;77.50;2227.20;;;;;;4994236;28;20121;-79
2021/01/08 08:31:36;;;;;;;114.18;98.05;;;77.60;2227.20;;;;;;4993748;28;20023;-84
2021/01/08 08:34:41;;;;;;;128.77;103.82;;;77.60;2227.20;;;;;;4991007;28;20033;-86
2021/01/08 08:37:28;;;;;;;161.93;115.60;;;77.60;2227.20;;;;;;4994728;28;20069;-87
2021/01/08 08:40:00;;;;;;;103.55;68.82;;;77.50;2227.20;;;;;;4978042;28;20019;-88
2021/01/08 08:42:47;;;;;;;81.57;49.58;;;77.40;2227.20;;;;;;4978525;28;20109;-89
2021/01/08 08:54:44;;;;;;;74.90;52.38;;;77.40;2227.20;;;;;;4995228;28;20072;-90
2021/01/08 08:59:54;;;;;;;97.38;69.63;;;77.60;2227.20;;;;;;4995788;28;20033;-89
2021/01/08 09:08:44;;;;;;;112.47;76.40;;;77.50;2227.20;;;;;;4996040;28;20038;-91
2021/01/08 09:11:36;;;;;;;102.32;63.08;;;77.30;2227.20;;;;;;4978038;28;20611;-88
2021/01/08 09:33:24;;;;;;;99.90;67.75;;;77.50;2227.20;;;;;;5023770;23;20121;-89
2021/01/08 09:35:52;;;;;;;132.03;95.50;;;77.50;2227.20;;;;;;4993706;28;20106;-90
2021/01/08 09:38:27;;;;;;;129.02;92.13;;;77.60;2227.20;;;;;;4977347;28;20739;-92
2021/01/08 09:40:53;;;;;;;142.50;99.00;;;102.40;2227.20;;;;;;4994046;28;20019;-91
2021/01/08 09:43:19;;;;;;;139.07;97.40;;;102.40;2227.20;;;;;;4994956;28;20028;-90
2021/01/08 09:45:45;;;;;;;173.65;120.93;;;102.40;2227.20;;;;;;4994252;28;20050;-90
2021/01/08 09:48:44;;;;;;;177.30;123.18;;;77.70;2227.20;;;;;;4993899;28;20042;-92
2021/01/08 09:51:10;;;;;;;178.02;119.32;;;102.50;2227.20;;;;;;4977922;28;20138;-90
2021/01/08 09:53:36;;;;;;;178.82;121.28;;;102.60;2227.20;;;;;;4994178;28;20030;-90
2021/01/08 09:56:20;;;;;;;195.75;134.73;;;102.50;2227.20;;;;;;4993914;28;20022;-89
2021/01/08 09:58:46;;;;;;;175.45;120.93;;;102.50;2227.20;;;;;;4978764;28;20067;-92
2021/01/08 10:01:18;;;;;;;142.98;102.30;;;102.40;2227.20;;;;;;4994173;28;20026;-90
2021/01/08 10:03:54;;;;;;;127.60;86.13;;;102.40;2227.20;;;;;;4993926;28;20054;-90
2021/01/08 10:06:22;;;;;;;133.30;88.80;;;102.40;2227.20;;;;;;4995001;28;20363;-90
2021/01/08 10:09:01;;;;;;;118.47;82.28;;;102.70;2227.20;;;;;;4977787;28;20026;-92
2021/01/08 10:11:27;;;;;;;130.63;89.65;;;77.70;2227.20;;;;;;4978424;28;20343;-90
2021/01/08 10:17:16;;;;;;;153.60;93.00;;;102.40;2227.20;;;;;;4995096;28;20026;-89
2021/01/08 10:19:43;;;;;;;123.18;76.85;;;102.50;2227.20;;;;;;4979949;28;20027;-91
2021/01/08 10:22:22;;;;;;;85.32;57.70;;;102.50;2227.20;;;;;;4998502;28;20025;-90
2021/01/08 10:24:48;;;;;;;82.30;55.97;;;102.40;2227.20;;;;;;4967011;28;20029;-90
2021/01/08 10:27:14;;;;;;;86.25;56.90;;;102.40;2227.20;;;;;;4981450;28;20493;-90
2021/01/08 10:29:40;;;;;;;79.88;50.97;;;77.60;2227.20;;;;;;4997561;28;20023;-89
2021/01/08 10:32:12;;;;;;;140.27;89.63;;;77.60;2227.20;;;;;;4994340;28;20046;-90
2021/01/08 10:34:43;;;;;;;100.72;64.57;;;77.40;2227.20;;;;;;4979463;28;20023;-89
2021/01/08 10:37:42;;;;;;;162.50;101.38;;;77.40;2227.20;;;;;;4978134;28;20046;-88
2021/01/08 10:40:09;;;;;;;143.25;87.57;;;77.60;2227.20;;;;;;4977177;28;20521;-89
2021/01/08 10:42:35;;;;;;;155.38;96.90;;;77.70;2227.20;;;;;;4977645;28;20077;-89
2021/01/08 10:45:01;;;;;;;150.75;97.55;;;77.70;2227.20;;;;;;4994020;28;20023;-88
2021/01/08 10:47:26;;;;;;;177.10;116.35;;;102.40;2227.20;;;;;;4977849;28;20117;-89
2021/01/08 10:49:54;;;;;;;226.18;147.80;;;102.50;2227.20;;;;;;4994167;28;20026;-91
2021/01/08 10:52:20;;;;;;;216.65;136.65;;;102.60;2227.20;;;;;;4978457;28;20366;-90
2021/01/08 10:54:46;;;;;;;136.70;93.90;;;102.50;2227.20;;;;;;4993864;28;20022;-91
2021/01/08 10:57:12;;;;;;;167.90;114.55;;;102.40;2227.20;;;;;;4994795;28;20038;-90
2021/01/08 10:59:38;;;;;;;172.85;115.70;;;77.70;2227.20;;;;;;4992511;28;20054;-91
2021/01/08 11:02:04;;;;;;;106.78;72.45;;;77.70;2227.20;;;;;;4993611;28;20073;-90
2021/01/08 11:04:30;;;;;;;127.90;87.03;;;77.70;2227.20;;;;;;4960779;28;20027;-89
2021/01/08 11:06:56;;;;;;;118.75;80.43;;;77.70;2227.20;;;;;;4993655;28;20362;-90
2021/01/08 11:09:22;;;;;;;110.50;72.00;;;77.70;2227.20;;;;;;4994160;28;20443;-89
2021/01/08 11:11:48;;;;;;;135.65;103.40;;;77.70;2227.20;;;;;;4993007;28;20027;-90
2021/01/08 11:14:23;;;;;;;85.53;58.97;;;77.60;2227.20;;;;;;4994048;28;20026;-90
2021/01/08 11:16:50;;;;;;;99.30;63.33;;;77.60;2227.20;;;;;;4980768;28;20019;-91
2021/01/08 11:19:30;;;;;;;80.93;53.88;;;77.50;2227.20;;;;;;4993474;28;20118;-86
2021/01/08 11:22:44;;;;;;;112.57;72.05;;;77.60;2227.20;;;;;;4976539;28;20015;-85
2021/01/08 11:28:20;;;;;;;93.90;54.78;;;77.70;2227.20;;;;;;4975725;28;20050;-85
2021/01/08 11:30:49;;;;;;;;;;;102.70;2227.20;;;;;;4976148;28;20117;-88
2021/01/08 11:33:15;;;;;;;99.78;70.47;;;103.20;2227.20;;;;;;4992566;28;19956;-90
2021/01/08 11:35:43;;;;;;;84.47;57.78;;;103.30;2227.20;;;;;;4991456;28;20042;-88
2021/01/08 11:38:08;;;;;;;93.93;61.53;;;103.30;2227.20;;;;;;4992843;28;20103;-87
2021/01/08 11:40:34;;;;;;;67.57;46.30;;;128.00;2252.80;;;;;;4976485;28;20026;-88
2021/01/08 11:43:00;;;;;;;44.63;31.85;;;103.30;2227.20;;;;;;4975996;28;20030;-89
2021/01/08 11:45:26;;;;;;;41.13;27.95;;;128.00;2252.80;;;;;;4976080;28;20451;-89
2021/01/08 11:47:51;;;;;;;49.70;33.08;;;128.20;2252.80;;;;;;4975905;28;20138;-87
2021/01/08 11:50:17;;;;;;;26.58;16.95;;;128.30;2252.80;;;;;;4976595;28;20023;-87
2021/01/08 11:52:43;;;;;;;31.67;20.05;;;128.00;2252.80;;;;;;4977342;28;20371;-90
2021/01/08 11:55:09;;;;;;;42.05;26.40;;;103.30;2227.20;;;;;;4976174;28;20022;-88
2021/01/08 11:57:35;;;;;;;54.28;29.98;;;128.10;2252.80;;;;;;4976474;28;20022;-87
2021/01/08 12:00:01;;;;;;;71.20;40.03;;;128.00;2252.80;;;;;;4976142;28;20490;-88
2021/01/08 12:02:26;;;;;;;54.25;35.45;;;103.20;2227.20;;;;;;4976076;28;20478;-90
2021/01/08 12:04:52;;;;;;;43.88;30.33;;;103.20;2227.20;;;;;;4975838;28;20077;-87
2021/01/08 12:07:18;;;;;;;67.28;44.45;;;103.00;2227.20;;;;;;4976174;28;20026;-89
2021/01/08 12:09:44;;;;;;;63.28;39.25;;;103.00;2227.20;;;;;;4976385;28;20030;-88
2021/01/08 12:12:11;;;;;;;55.67;36.03;;;103.00;2227.20;;;;;;4976203;28;20023;-88
2021/01/08 12:17:57;;;;;;;54.65;34.53;;;102.80;2227.20;;;;;;4997148;23;20055;-87
2021/01/08 12:20:23;;;;;;;50.28;32.80;;;102.80;2227.20;;;;;;4975311;28;20101;-87
2021/01/08 12:22:49;;;;;;;60.75;37.42;;;102.80;2227.20;;;;;;4975142;28;20407;-88
2021/01/08 12:25:17;;;;;;;66.32;38.83;;;102.70;2227.20;;;;;;4976975;28;20051;-88
2021/01/08 12:27:47;;;;;;;71.53;41.58;;;102.70;2227.20;;;;;;4980159;28;20105;-88
2021/01/08 12:30:13;;;;;;;68.18;44.22;;;102.80;2227.20;;;;;;4963268;28;20093;-88
2021/01/08 12:32:39;;;;;;;53.60;36.00;;;102.80;2227.20;;;;;;4978238;28;20019;-89
2021/01/08 12:35:06;;;;;;;56.67;38.25;;;102.50;2227.20;;;;;;4976183;28;20026;-88
2021/01/08 12:37:32;;;;;;;47.20;31.02;;;102.80;2227.20;;;;;;4975535;28;20133;-88
2021/01/08 12:39:58;;;;;;;49.00;33.55;;;102.90;2227.20;;;;;;4975596;28;20109;-88
2021/01/08 12:42:24;;;;;;;59.33;38.95;;;102.90;2227.20;;;;;;4974596;28;20089;-89
2021/01/08 12:44:49;;;;;;;57.92;37.65;;;102.80;2227.20;;;;;;4976354;28;20443;-90
2021/01/08 12:47:15;;;;;;;64.22;42.47;;;103.00;2227.20;;;;;;4975828;28;20483;-89
2021/01/08 12:49:41;;;;;;;45.35;29.25;;;103.00;2227.20;;;;;;4975145;28;20027;-88
2021/01/08 12:52:07;;;;;;;80.22;47.08;;;102.80;2227.20;;;;;;4975715;28;20525;-88
2021/01/08 12:54:58;;;;;;;42.95;28.42;;;102.70;2227.20;;;;;;4975656;28;20029;-88
2021/01/08 12:57:32;;;;;;;37.20;25.50;;;102.60;2227.20;;;;;;4941068;28;20035;-87
2021/01/08 13:06:30;;;;;;;43.13;27.63;;;102.70;2227.20;;;;;;5027341;23;20016;-87
2021/01/08 13:52:17;;;;;;;64.57;35.88;;;102.70;2227.20;;;;;;4975144;28;20045;-89
2021/01/08 13:54:43;;;;;;;89.20;48.90;;;102.80;2227.20;;;;;;4961621;28;20126;-90
2021/01/08 13:57:10;;;;;;;64.10;39.03;;;102.80;2227.20;;;;;;4962318;28;20471;-90
2021/01/08 13:59:35;;;;;;;63.53;34.00;;;102.60;2227.20;;;;;;4962513;28;20105;-88
2021/01/08 14:02:01;;;;;;;34.75;20.90;;;102.60;2227.20;;;;;;4962073;28;20110;-88
2021/01/08 14:04:27;;;;;;;55.45;36.78;;;102.70;2227.20;;;;;;4963129;28;20023;-88
2021/01/08 14:06:53;;;;;;;126.70;77.97;;;102.70;2227.20;;;;;;4961074;28;20054;-89
2021/01/08 14:09:18;;;;;;;101.28;63.25;;;102.80;2227.20;;;;;;4962844;28;20070;-87
2021/01/08 14:11:44;;;;;;;137.18;79.18;;;102.80;2227.20;;;;;;4962271;28;20019;-90
2021/01/08 14:14:10;;;;;;;68.95;44.72;;;102.70;2227.20;;;;;;4962346;28;20015;-88
2021/01/08 14:16:39;;;;;;;84.85;54.20;;;102.80;2227.20;;;;;;4962683;28;20401;-88
2021/01/08 14:19:05;;;;;;;112.95;80.60;;;102.90;2227.20;;;;;;4978126;28;20034;-88
2021/01/08 14:21:38;;;;;;;95.03;61.47;;;102.90;2227.20;;;;;;4961695;28;20027;-89
2021/01/08 14:24:06;;;;;;;105.18;58.00;;;102.90;2227.20;;;;;;4978747;28;20090;-90
2021/01/08 14:26:33;;;;;;;84.55;38.45;;;102.90;2227.20;;;;;;4978117;28;20374;-88
2021/01/08 14:29:00;;;;;;;68.35;37.40;;;102.90;2227.20;;;;;;4977813;28;20023;-89
2021/01/08 14:36:59;;;;;;;116.07;72.03;;;102.90;2227.20;;;;;;4979540;28;20030;-88
2021/01/08 14:39:25;;;;;;;109.55;67.38;;;102.90;2227.20;;;;;;4962477;28;20023;-88
2021/01/08 14:41:56;;;;;;;76.60;52.13;;;102.90;2227.20;;;;;;4961526;28;20023;-87
2021/01/08 14:44:22;;;;;;;83.15;53.72;;;103.00;2227.20;;;;;;4961448;28;20031;-88
2021/01/08 14:46:48;;;;;;;80.50;51.85;;;103.10;2227.20;;;;;;4960725;28;20458;-87
2021/01/08 14:49:16;;;;;;;75.25;53.85;;;103.00;2227.20;;;;;;4961345;28;20035;-88
2021/01/08 14:51:43;;;;;;;60.60;42.33;;;103.00;2227.20;;;;;;4976750;28;20021;-88
2021/01/08 14:54:09;;;;;;;50.45;36.60;;;103.10;2227.20;;;;;;4977864;28;20474;-88
2021/01/08 14:56:46;;;;;;;59.38;40.45;;;103.00;2227.20;;;;;;4977160;28;20053;-87
2021/01/08 14:59:13;;;;;;;79.93;53.78;;;103.10;2227.20;;;;;;4977509;28;20051;-88
2021/01/08 15:01:39;;;;;;;82.38;52.10;;;103.20;2227.20;;;;;;4977852;28;20029;-88
2021/01/08 15:04:05;;;;;;;105.63;60.63;;;103.10;2227.20;;;;;;4961327;28;20022;-88
2021/01/08 15:06:33;;;;;;;118.45;62.75;;;103.10;2227.20;;;;;;4960119;28;20027;-88
2021/01/08 15:08:59;;;;;;;97.68;55.88;;;102.90;2227.20;;;;;;4977447;28;20336;-87
2021/01/08 15:11:35;;;;;;;71.32;39.30;;;103.10;2227.20;;;;;;4977170;28;20022;-90
2021/01/08 15:14:01;;;;;;;72.78;41.10;;;103.00;2227.20;;;;;;4977416;28;20023;-88
2021/01/08 15:16:27;;;;;;;69.32;43.30;;;103.10;2227.20;;;;;;4960887;28;20101;-88
2021/01/08 15:18:53;;;;;;;64.90;37.55;;;103.00;2227.20;;;;;;4961079;28;20026;-87
2021/01/08 15:21:18;;;;;;;64.90;41.15;;;103.10;2227.20;;;;;;4960742;28;20026;-88
2021/01/08 15:23:44;;;;;;;49.55;31.58;;;103.10;2227.20;;;;;;4960884;28;20026;-88
2021/01/08 15:26:14;;;;;;;36.60;23.02;;;103.10;2227.20;;;;;;4961007;28;20109;-89
2021/01/08 15:28:41;;;;;;;47.42;30.80;;;103.10;2227.20;;;;;;4976649;28;20022;-87
2021/01/08 15:31:07;;;;;;;49.88;33.60;;;103.20;2227.20;;;;;;4976940;28;20030;-88
2021/01/08 15:33:33;;;;;;;55.10;37.97;;;103.00;2227.20;;;;;;4976810;28;20046;-87
2021/01/08 15:36:02;;;;;;;43.28;33.08;;;103.00;2227.20;;;;;;4960063;28;20058;-87
2021/01/08 15:38:38;;;;;;;55.03;40.78;;;103.00;2227.20;;;;;;4978091;28;20026;-88
2021/01/08 15:41:06;;;;;;;80.50;50.38;;;103.00;2227.20;;;;;;4976518;28;20019;-88
2021/01/08 15:43:32;;;;;;;68.65;40.30;;;103.00;2227.20;;;;;;4976704;28;20033;-88
2021/01/08 15:45:59;;;;;;;97.55;52.35;;;103.00;2227.20;;;;;;4976838;28;20023;-90
2021/01/08 15:48:25;;;;;;;103.75;55.75;;;103.20;2227.20;;;;;;4976633;28;20042;-88
2021/01/08 15:50:52;;;;;;;123.22;72.38;;;103.10;2227.20;;;;;;4976546;28;20470;-89
2021/01/08 15:53:18;;;;;;;121.82;75.35;;;103.20;2227.20;;;;;;4976445;28;20015;-88
2021/01/08 15:55:44;;;;;;;96.97;63.55;;;103.20;2227.20;;;;;;4960375;28;20117;-89
2021/01/08 15:58:11;;;;;;;115.60;69.70;;;103.20;2227.20;;;;;;4976358;28;20053;-89
2021/01/08 16:00:40;;;;;;;115.32;73.78;;;103.00;2227.20;;;;;;4976500;28;20033;-88
2021/01/08 16:03:07;;;;;;;76.97;49.53;;;103.10;2227.20;;;;;;4960016;28;20019;-88
2021/01/08 16:05:33;;;;;;;70.80;46.55;;;103.10;2227.20;;;;;;4976238;28;20034;-89
2021/01/08 16:07:59;;;;;;;93.43;55.92;;;103.00;2227.20;;;;;;4976412;28;20549;-89
2021/01/08 16:10:27;;;;;;;100.88;60.78;;;103.00;2227.20;;;;;;4974768;28;20458;-88
2021/01/08 16:12:57;;;;;;;99.68;61.20;;;103.00;2227.20;;;;;;4977270;28;20041;-91
2021/01/08 16:15:25;;;;;;;85.35;50.05;;;102.80;2227.20;;;;;;4976497;28;20023;-92
2021/01/08 17:21:21;;;;;;;17.67;11.60;;;77.00;2227.20;;;;;;5398643;23;19917;-82
2021/01/08 21:00:43;;;;;;;60.35;30.67;;;51.80;2227.20;;;;;;5000466;28;20099;-80
2021/01/08 23:59:03;;;;;;;57.45;33.92;;;77.20;2227.20;;;;;;4989837;23;20454;-89
